createdAt,value
2019-01-11T00:00:16.334Z,-2.42
2019-01-11T00:02:49.038Z,-2.40
2019-01-11T00:05:20.336Z,-2.40
2019-01-11T00:07:51.676Z,-2.35
2019-01-11T00:10:22.875Z,-2.35
2019-01-11T00:12:53.971Z,-2.35
2019-01-11T00:15:25.125Z,-2.45
2019-01-11T00:17:56.193Z,-2.67
2019-01-11T00:20:29.208Z,-2.47
2019-01-11T00:23:00.351Z,-2.71
2019-01-11T00:25:31.576Z,-2.75
2019-01-11T00:28:02.820Z,-2.72
2019-01-11T00:30:34.006Z,-2.64
2019-01-11T00:33:05.485Z,-2.62
2019-01-11T00:35:36.725Z,-2.40
2019-01-11T00:38:07.866Z,-2.82
2019-01-11T00:40:39.104Z,-2.71
2019-01-11T00:43:14.989Z,-2.82
2019-01-11T00:45:43.444Z,-2.96
2019-01-11T00:48:14.594Z,-2.93
2019-01-11T00:50:45.686Z,-2.65
2019-01-11T00:53:16.836Z,-2.93
2019-01-11T00:55:47.993Z,-2.85
2019-01-11T00:58:19.172Z,-2.79
2019-01-11T01:00:50.334Z,-2.59
2019-01-11T01:03:21.497Z,-2.85
2019-01-11T01:05:52.740Z,-2.80
2019-01-11T01:08:30.396Z,-2.94
2019-01-11T01:10:56.927Z,-2.81
2019-01-11T01:13:28.207Z,-2.82
2019-01-11T01:15:59.361Z,-2.62
2019-01-11T01:18:30.541Z,-2.48
2019-01-11T01:21:01.642Z,-2.48
2019-01-11T01:23:32.716Z,-2.49
2019-01-11T01:26:04.270Z,-2.63
2019-01-11T01:28:35.339Z,-2.67
2019-01-11T01:31:06.567Z,-2.68
2019-01-11T01:33:37.870Z,-2.56
2019-01-11T01:36:09.005Z,-2.86
2019-01-11T01:38:40.059Z,-2.84
2019-01-11T01:41:11.482Z,-2.77
2019-01-11T01:43:42.635Z,-2.84
2019-01-11T01:46:13.763Z,-2.83
2019-01-11T01:48:45.394Z,-2.91
2019-01-11T01:51:16.913Z,-3.09
2019-01-11T01:53:48.152Z,-3.04
2019-01-11T01:56:19.451Z,-2.83
2019-01-11T01:58:50.608Z,-2.96
2019-01-11T02:01:21.766Z,-2.82
2019-01-11T02:03:52.898Z,-2.94
2019-01-11T02:06:24.023Z,-2.85
2019-01-11T02:08:55.084Z,-2.81
2019-01-11T02:11:26.262Z,-2.66
2019-01-11T02:13:57.472Z,-2.78
2019-01-11T02:16:28.628Z,-2.76
2019-01-11T02:18:59.684Z,-2.64
2019-01-11T02:21:30.947Z,-2.67
2019-01-11T02:24:02.081Z,-2.59
2019-01-11T02:26:33.294Z,-2.60
2019-01-11T02:29:04.689Z,-2.75
2019-01-11T02:31:35.948Z,-2.74
2019-01-11T02:34:07.259Z,-2.75
2019-01-11T02:36:38.323Z,-2.48
2019-01-11T02:39:09.580Z,-2.49
2019-01-11T02:41:40.791Z,-2.47
2019-01-11T02:44:11.951Z,-2.47
2019-01-11T02:46:43.234Z,-2.43
2019-01-11T02:49:14.576Z,-2.43
2019-01-11T02:51:45.631Z,-2.45
2019-01-11T02:54:16.733Z,-2.45
2019-01-11T02:56:47.816Z,-2.32
2019-01-11T02:59:18.951Z,-2.30
2019-01-11T03:01:49.994Z,-2.24
2019-01-11T03:04:21.000Z,-2.24
2019-01-11T03:06:52.067Z,-2.26
2019-01-11T03:09:23.415Z,-2.28
2019-01-11T03:11:55.400Z,-2.35
2019-01-11T03:14:26.551Z,-2.42
2019-01-11T03:16:58.695Z,-2.28
2019-01-11T03:19:29.858Z,-2.31
2019-01-11T03:22:01.173Z,-2.31
2019-01-11T03:24:32.395Z,-2.38
2019-01-11T03:27:03.452Z,-2.32
2019-01-11T03:29:34.894Z,-2.32
2019-01-11T03:32:06.169Z,-2.33
2019-01-11T03:34:44.949Z,-2.37
2019-01-11T03:37:16.223Z,-2.29
2019-01-11T03:39:47.323Z,-2.44
2019-01-11T03:42:18.564Z,-2.44
2019-01-11T03:44:49.759Z,-2.55
2019-01-11T03:47:21.024Z,-2.45
2019-01-11T03:49:55.055Z,-2.28
2019-01-11T03:52:24.920Z,-2.27
2019-01-11T03:54:55.960Z,-2.32
2019-01-11T03:57:27.121Z,-2.32
2019-01-11T03:59:58.287Z,-2.28
2019-01-11T04:02:29.443Z,-2.69
2019-01-11T04:05:00.824Z,-2.47
2019-01-11T04:07:32.052Z,-2.84
2019-01-11T04:10:03.177Z,-2.71
2019-01-11T04:12:34.243Z,-2.76
2019-01-11T04:15:07.481Z,-2.68
2019-01-11T04:17:38.599Z,-2.93
2019-01-11T04:20:13.083Z,-2.98
2019-01-11T04:22:48.874Z,-3.01
2019-01-11T04:25:22.392Z,-2.96
2019-01-11T04:27:53.766Z,-3.07
2019-01-11T04:30:24.966Z,-3.13
2019-01-11T04:32:55.958Z,-3.13
2019-01-11T04:35:27.452Z,-2.90
2019-01-11T04:37:58.570Z,-2.90
2019-01-11T04:40:34.085Z,-3.07
2019-01-11T04:43:02.421Z,-3.05
2019-01-11T04:45:33.563Z,-3.02
2019-01-11T04:48:04.720Z,-3.09
2019-01-11T04:50:35.910Z,-3.28
2019-01-11T04:53:07.141Z,-3.07
2019-01-11T04:55:38.272Z,-3.06
2019-01-11T04:58:09.272Z,-3.12
2019-01-11T05:00:40.415Z,-3.01
2019-01-11T05:03:11.743Z,-3.04
2019-01-11T05:05:43.057Z,-2.99
2019-01-11T05:08:14.177Z,-3.05
2019-01-11T05:10:45.197Z,-2.94
2019-01-11T05:13:30.047Z,-3.19
2019-01-11T05:16:01.158Z,-3.23
2019-01-11T05:18:32.234Z,-3.02
2019-01-11T05:21:03.409Z,-3.05
2019-01-11T05:23:34.615Z,-3.09
2019-01-11T05:26:05.757Z,-2.96
2019-01-11T05:28:37.027Z,-2.89
2019-01-11T05:31:08.116Z,-3.00
2019-01-11T05:33:39.224Z,-3.09
2019-01-11T05:36:10.375Z,-3.11
2019-01-11T05:38:41.416Z,-3.24
2019-01-11T05:41:12.648Z,-3.30
2019-01-11T05:43:43.794Z,-3.19
2019-01-11T05:46:15.055Z,-3.17
2019-01-11T05:48:46.131Z,-2.87
2019-01-11T05:51:17.342Z,-2.98
2019-01-11T05:53:48.408Z,-3.16
2019-01-11T05:56:20.639Z,-3.34
2019-01-11T05:58:58.300Z,-3.21
2019-01-11T06:01:29.452Z,-3.11
2019-01-11T06:04:00.606Z,-3.03
2019-01-11T06:06:50.692Z,-3.11
2019-01-11T06:09:21.783Z,-3.14
2019-01-11T06:11:52.831Z,-3.20
2019-01-11T06:14:23.926Z,-3.09
2019-01-11T06:16:55.014Z,-3.03
2019-01-11T06:19:26.098Z,-3.26
2019-01-11T06:21:57.235Z,-3.12
2019-01-11T06:24:28.379Z,-3.02
2019-01-11T06:26:59.553Z,-2.93
2019-01-11T06:29:30.757Z,-2.97
2019-01-11T06:32:01.941Z,-3.11
2019-01-11T06:34:33.048Z,-2.97
2019-01-11T06:37:04.412Z,-3.11
2019-01-11T06:39:35.639Z,-3.16
2019-01-11T06:42:25.433Z,-2.98
2019-01-11T06:44:56.976Z,-2.93
2019-01-11T06:47:28.374Z,-3.20
2019-01-11T06:49:59.557Z,-3.28
2019-01-11T06:52:30.834Z,-3.17
2019-01-11T06:55:03.603Z,-3.15
2019-01-11T06:57:34.717Z,-3.03
2019-01-11T07:00:09.270Z,-2.94
2019-01-11T07:02:40.444Z,-3.00
2019-01-11T07:05:12.372Z,-3.03
2019-01-11T07:07:43.514Z,-2.95
2019-01-11T07:10:17.259Z,-3.01
2019-01-11T07:12:48.382Z,-2.89
2019-01-11T07:15:19.512Z,-2.91
2019-01-11T07:17:50.586Z,-2.96
2019-01-11T07:20:21.776Z,-2.85
2019-01-11T07:22:54.375Z,-2.72
2019-01-11T07:25:25.529Z,-2.63
2019-01-11T07:28:02.108Z,-2.64
2019-01-11T07:30:51.047Z,-2.70
2019-01-11T07:33:23.614Z,-2.81
2019-01-11T07:36:05.884Z,-2.63
2019-01-11T07:38:36.939Z,-2.74
2019-01-11T07:41:08.498Z,-2.75
2019-01-11T07:43:39.702Z,-2.79
2019-01-11T07:46:10.954Z,-2.53
2019-01-11T07:48:42.096Z,-2.59
2019-01-11T07:51:13.223Z,-2.61
2019-01-11T07:53:44.475Z,-2.38
2019-01-11T07:56:34.752Z,-2.52
2019-01-11T07:59:06.512Z,-2.38
2019-01-11T08:01:37.620Z,-2.28
2019-01-11T08:04:09.565Z,-2.17
2019-01-11T08:06:40.856Z,-2.17
2019-01-11T08:09:12.078Z,-1.91
2019-01-11T08:11:43.369Z,-2.26
2019-01-11T08:14:14.564Z,-2.11
2019-01-11T08:16:45.708Z,-1.90
2019-01-11T08:19:17.053Z,-1.95
2019-01-11T08:21:48.134Z,-1.93
2019-01-11T08:24:19.359Z,-1.75
2019-01-11T08:26:50.901Z,-1.63
2019-01-11T08:29:22.151Z,-1.59
2019-01-11T08:31:53.328Z,-1.50
2019-01-11T08:34:24.354Z,-1.26
2019-01-11T08:36:55.484Z,-1.41
2019-01-11T08:39:32.354Z,-1.91
2019-01-11T08:41:59.561Z,-1.95
2019-01-11T08:44:30.643Z,-1.61
2019-01-11T08:47:01.637Z,-1.79
2019-01-11T08:49:32.911Z,-1.90
2019-01-11T08:52:04.161Z,-1.44
2019-01-11T08:54:35.284Z,-1.78
2019-01-11T08:57:06.444Z,-1.78
2019-01-11T08:59:37.599Z,-1.22
2019-01-11T09:02:08.688Z,-1.07
2019-01-11T09:04:39.797Z,-1.15
2019-01-11T09:07:10.941Z,-0.78
2019-01-11T09:09:42.097Z,-0.91
2019-01-11T09:12:13.470Z,-1.44
2019-01-11T09:14:48.329Z,-1.49
2019-01-11T09:17:20.646Z,-0.94
2019-01-11T09:19:51.902Z,-0.89
2019-01-11T09:22:22.893Z,-1.07
2019-01-11T09:24:53.995Z,-0.66
2019-01-11T09:27:25.052Z,-0.97
2019-01-11T09:29:56.142Z,-0.99
2019-01-11T09:32:27.283Z,-0.88
2019-01-11T09:34:58.368Z,-0.77
2019-01-11T09:37:29.439Z,-0.54
2019-01-11T09:40:00.528Z,-0.61
2019-01-11T09:42:31.679Z,-0.33
2019-01-11T09:45:02.858Z,-0.28
2019-01-11T09:47:33.865Z,-0.72
2019-01-11T09:50:06.254Z,-0.80
2019-01-11T09:52:37.393Z,-0.98
2019-01-11T09:55:08.992Z,0.08
2019-01-11T09:57:40.272Z,-0.47
2019-01-11T10:00:15.120Z,-0.63
2019-01-11T10:02:53.401Z,-0.74
2019-01-11T10:05:24.586Z,-0.62
2019-01-11T10:07:55.676Z,-1.07
2019-01-11T10:10:27.196Z,-0.71
2019-01-11T10:12:58.343Z,-0.53
2019-01-11T10:15:29.539Z,0.29
2019-01-11T10:18:00.685Z,-0.12
2019-01-11T10:20:31.850Z,0.05
2019-01-11T10:23:03.287Z,0.44
2019-01-11T10:25:34.450Z,-0.12
2019-01-11T10:28:05.749Z,0.35
2019-01-11T10:30:36.945Z,-0.86
2019-01-11T10:33:08.123Z,0.25
2019-01-11T10:35:39.290Z,0.09
2019-01-11T10:38:10.311Z,-0.08
2019-01-11T10:40:41.549Z,0.24
2019-01-11T10:43:12.555Z,0.21
2019-01-11T10:45:43.657Z,-0.62
2019-01-11T10:48:14.734Z,-0.45
2019-01-11T10:50:45.816Z,0.21
2019-01-11T10:53:16.804Z,-0.29
2019-01-11T10:55:47.852Z,-0.74
2019-01-11T10:58:19.068Z,-0.69
2019-01-11T11:00:50.157Z,-0.48
2019-01-11T11:03:21.203Z,0.08
2019-01-11T11:05:52.284Z,-0.79
2019-01-11T11:08:23.297Z,-0.35
2019-01-11T11:10:54.390Z,-0.32
2019-01-11T11:13:25.457Z,-0.57
2019-01-11T11:15:58.288Z,-0.33
2019-01-11T11:18:29.431Z,-0.50
2019-01-11T11:21:00.515Z,-0.53
2019-01-11T11:23:31.915Z,-0.25
2019-01-11T11:26:03.083Z,-0.28
2019-01-11T11:28:35.336Z,-0.21
2019-01-11T11:31:06.485Z,-0.02
2019-01-11T11:33:37.628Z,-0.11
2019-01-11T11:36:08.704Z,-0.44
2019-01-11T11:38:39.733Z,-0.49
2019-01-11T11:41:10.853Z,-0.90
2019-01-11T11:43:42.002Z,-1.18
2019-01-11T11:46:15.963Z,-1.09
2019-01-11T11:48:47.128Z,-0.32
2019-01-11T11:51:18.460Z,-0.47
2019-01-11T11:53:49.585Z,-0.03
2019-01-11T11:56:21.036Z,0.16
2019-01-11T11:58:52.113Z,0.20
2019-01-11T12:01:23.253Z,0.22
2019-01-11T12:03:54.302Z,0.19
2019-01-11T12:06:25.303Z,-0.48
2019-01-11T12:08:56.456Z,-0.50
2019-01-11T12:11:27.538Z,-0.57
2019-01-11T12:13:59.717Z,-0.69
2019-01-11T12:16:30.825Z,-0.84
2019-01-11T12:19:01.955Z,-0.74
2019-01-11T12:21:33.441Z,-0.24
2019-01-11T12:24:04.673Z,-0.75
2019-01-11T12:26:35.770Z,-0.99
2019-01-11T12:29:07.099Z,-0.70
2019-01-11T12:31:38.252Z,-0.73
2019-01-11T12:34:09.398Z,-0.83
2019-01-11T12:36:40.485Z,-1.08
2019-01-11T12:39:11.532Z,-1.23
2019-01-11T12:41:42.631Z,-1.33
2019-01-11T12:44:13.721Z,-1.08
2019-01-11T12:46:44.725Z,-1.20
2019-01-11T12:49:15.802Z,-0.96
2019-01-11T12:51:46.894Z,-1.50
2019-01-11T12:54:18.031Z,-1.26
2019-01-11T12:56:49.099Z,-1.26
2019-01-11T12:59:20.170Z,-1.39
2019-01-11T13:01:51.197Z,-1.23
2019-01-11T13:04:22.356Z,-1.20
2019-01-11T13:06:53.441Z,-1.40
2019-01-11T13:09:24.530Z,-1.73
2019-01-11T13:11:55.696Z,-1.28
2019-01-11T13:14:26.876Z,-1.46
2019-01-11T13:16:58.055Z,-1.37
2019-01-11T13:19:29.197Z,-1.77
2019-01-11T13:22:00.783Z,-1.54
2019-01-11T13:24:32.009Z,-1.56
2019-01-11T13:27:03.121Z,-1.03
2019-01-11T13:29:34.189Z,-1.10
2019-01-11T13:32:05.850Z,-1.31
2019-01-11T13:34:36.922Z,-1.86
2019-01-11T13:37:08.103Z,-1.73
2019-01-11T13:39:40.173Z,-2.09
2019-01-11T13:42:11.341Z,-2.15
2019-01-11T13:44:42.489Z,-2.02
2019-01-11T13:47:13.655Z,-2.01
2019-01-11T13:49:44.763Z,-1.83
2019-01-11T13:52:15.861Z,-2.26
2019-01-11T13:54:48.122Z,-1.86
2019-01-11T13:57:19.225Z,-1.73
2019-01-11T13:59:50.329Z,-1.96
2019-01-11T14:02:21.487Z,-2.06
2019-01-11T14:04:52.599Z,-1.99
2019-01-11T14:07:23.712Z,-2.02
2019-01-11T14:09:54.811Z,-2.15
2019-01-11T14:12:25.851Z,-2.02
2019-01-11T14:14:56.879Z,-2.00
2019-01-11T14:17:27.979Z,-2.02
2019-01-11T14:19:59.049Z,-2.04
2019-01-11T14:22:31.305Z,-1.90
2019-01-11T14:25:03.174Z,-1.86
2019-01-11T14:27:34.182Z,-1.67
2019-01-11T14:30:07.002Z,-2.02
2019-01-11T14:32:38.177Z,-1.98
2019-01-11T14:35:09.657Z,-1.85
2019-01-11T14:37:40.680Z,-1.95
2019-01-11T14:40:13.433Z,-2.17
2019-01-11T14:42:44.537Z,-1.96
2019-01-11T14:45:16.831Z,-2.28
2019-01-11T14:47:48.014Z,-2.39
2019-01-11T14:50:19.935Z,-2.17
2019-01-11T14:52:51.022Z,-2.21
2019-01-11T14:55:22.097Z,-2.04
2019-01-11T14:57:53.231Z,-2.31
2019-01-11T15:00:24.608Z,-2.33
2019-01-11T15:02:55.664Z,-2.22
2019-01-11T15:05:26.735Z,-2.31
2019-01-11T15:07:57.902Z,-2.50
2019-01-11T15:10:29.018Z,-2.36
2019-01-11T15:13:00.174Z,-2.43
2019-01-11T15:15:31.259Z,-2.29
2019-01-11T15:18:02.347Z,-2.05
2019-01-11T15:20:33.432Z,-2.32
2019-01-11T15:23:04.605Z,-2.14
2019-01-11T15:25:35.688Z,-2.13
2019-01-11T15:28:06.952Z,-2.19
2019-01-11T15:30:39.300Z,-2.01
2019-01-11T15:33:10.547Z,-2.33
2019-01-11T15:35:41.599Z,-2.21
2019-01-11T15:38:13.068Z,-2.18
2019-01-11T15:40:44.213Z,-2.15
2019-01-11T15:43:15.411Z,-2.06
2019-01-11T15:45:47.934Z,-2.17
2019-01-11T15:48:21.596Z,-2.31
2019-01-11T15:50:59.361Z,-2.13
2019-01-11T15:53:39.740Z,-2.11
2019-01-11T15:56:12.496Z,-2.20
2019-01-11T15:58:43.516Z,-2.27
2019-01-11T16:01:14.619Z,-2.05
2019-01-11T16:03:45.781Z,-1.98
2019-01-11T16:06:39.694Z,-2.02
2019-01-11T16:09:57.427Z,-2.15
2019-01-11T16:12:42.832Z,-2.13
2019-01-11T16:15:59.925Z,-2.30
2019-01-11T16:18:32.528Z,-2.19
2019-01-11T16:21:03.719Z,-2.07
2019-01-11T16:23:34.896Z,-2.13
2019-01-11T16:26:07.125Z,-2.17
2019-01-11T16:28:38.285Z,-2.03
2019-01-11T16:31:09.393Z,-2.18
2019-01-11T16:33:41.460Z,-2.14
2019-01-11T16:36:13.615Z,-2.07
2019-01-11T16:38:44.712Z,-1.73
2019-01-11T16:41:16.208Z,-1.66
2019-01-11T16:43:47.333Z,-1.89
2019-01-11T16:46:18.578Z,-2.07
2019-01-11T16:48:49.692Z,-1.93
2019-01-11T16:51:20.807Z,-2.04
2019-01-11T16:53:51.904Z,-2.00
2019-01-11T16:56:23.779Z,-1.92
2019-01-11T16:58:54.872Z,-1.98
2019-01-11T17:01:25.950Z,-1.99
2019-01-11T17:03:57.046Z,-2.05
2019-01-11T17:06:28.283Z,-1.95
2019-01-11T17:08:59.463Z,-1.91
2019-01-11T17:11:30.597Z,-2.02
2019-01-11T17:14:01.707Z,-1.95
2019-01-11T17:16:32.792Z,-1.93
2019-01-11T17:19:04.378Z,-2.05
2019-01-11T17:21:35.548Z,-1.97
2019-01-11T17:24:06.702Z,-1.81
2019-01-11T17:26:37.860Z,-1.84
2019-01-11T17:29:08.945Z,-1.71
2019-01-11T17:31:40.122Z,-1.86
2019-01-11T17:34:11.219Z,-1.79
2019-01-11T17:36:42.245Z,-1.92
2019-01-11T17:39:13.260Z,-1.79
2019-01-11T17:41:44.332Z,-1.96
2019-01-11T17:44:15.508Z,-2.05
2019-01-11T17:46:46.595Z,-1.95
2019-01-11T17:49:17.705Z,-2.10
2019-01-11T17:51:48.830Z,-2.03
2019-01-11T17:54:20.067Z,-1.98
2019-01-11T17:56:51.179Z,-1.90
2019-01-11T17:59:22.294Z,-1.94
2019-01-11T18:01:53.378Z,-2.06
2019-01-11T18:04:24.466Z,-1.99
2019-01-11T18:06:55.569Z,-2.09
2019-01-11T18:09:26.677Z,-2.09
2019-01-11T18:11:57.813Z,-2.07
2019-01-11T18:14:28.933Z,-2.06
2019-01-11T18:17:00.159Z,-1.92
2019-01-11T18:19:31.306Z,-2.05
2019-01-11T18:22:02.447Z,-2.07
2019-01-11T18:24:33.563Z,-2.12
2019-01-11T18:27:04.723Z,-2.04
2019-01-11T18:29:35.779Z,-2.16
2019-01-11T18:32:06.975Z,-2.10
2019-01-11T18:34:38.127Z,-2.26
2019-01-11T18:37:10.339Z,-2.24
2019-01-11T18:39:41.358Z,-2.06
2019-01-11T18:42:12.462Z,-2.02
2019-01-11T18:44:43.455Z,-2.10
2019-01-11T18:47:14.587Z,-2.32
2019-01-11T18:49:45.705Z,-2.19
2019-01-11T18:52:16.884Z,-2.19
2019-01-11T18:54:48.051Z,-2.27
2019-01-11T18:57:19.379Z,-2.12
2019-01-11T18:59:50.471Z,-2.27
2019-01-11T19:02:21.547Z,-2.34
2019-01-11T19:04:52.588Z,-2.36
2019-01-11T19:07:23.565Z,-2.27
2019-01-11T19:09:54.698Z,-2.26
2019-01-11T19:12:25.843Z,-2.28
2019-01-11T19:14:56.933Z,-2.45
2019-01-11T19:17:28.013Z,-2.18
2019-01-11T19:19:59.088Z,-2.31
2019-01-11T19:22:30.079Z,-2.30
2019-01-11T19:25:01.258Z,-2.26
2019-01-11T19:27:32.418Z,-2.37
2019-01-11T19:30:06.064Z,-2.34
2019-01-11T19:32:37.201Z,-2.25
2019-01-11T19:35:08.485Z,-2.39
2019-01-11T19:37:39.537Z,-2.32
2019-01-11T19:40:11.353Z,-2.16
2019-01-11T19:42:42.824Z,-2.16
2019-01-11T19:45:14.192Z,-2.33
2019-01-11T19:47:47.090Z,-2.29
2019-01-11T19:50:20.324Z,-2.36
2019-01-11T19:52:51.865Z,-2.39
2019-01-11T19:55:23.010Z,-2.42
2019-01-11T19:57:54.235Z,-2.38
2019-01-11T20:00:27.676Z,-2.31
2019-01-11T20:02:58.845Z,-2.30
2019-01-11T20:05:30.011Z,-2.16
2019-01-11T20:08:01.106Z,-2.16
2019-01-11T20:10:33.583Z,-2.27
2019-01-11T20:13:05.144Z,-2.21
2019-01-11T20:15:37.269Z,-2.18
2019-01-11T20:18:08.529Z,-2.14
2019-01-11T20:20:39.706Z,-2.12
2019-01-11T20:23:10.832Z,-2.14
2019-01-11T20:25:41.910Z,-2.13
2019-01-11T20:28:12.970Z,-2.14
2019-01-11T20:30:44.019Z,-2.06
2019-01-11T20:33:15.480Z,-2.14
2019-01-11T20:35:46.733Z,-2.11
2019-01-11T20:38:17.800Z,-2.12
2019-01-11T20:40:48.986Z,-2.14
2019-01-11T20:43:20.141Z,-1.98
2019-01-11T20:45:51.258Z,-2.02
2019-01-11T20:48:22.427Z,-2.00
2019-01-11T20:50:53.592Z,-1.96
2019-01-11T20:53:24.757Z,-1.90
2019-01-11T20:55:56.101Z,-1.67
2019-01-11T20:58:28.065Z,-2.05
2019-01-11T21:00:59.227Z,-1.86
2019-01-11T21:03:30.306Z,-1.76
2019-01-11T21:06:01.474Z,-1.71
2019-01-11T21:08:32.664Z,-1.80
2019-01-11T21:11:03.864Z,-1.89
2019-01-11T21:13:35.028Z,-1.89
2019-01-11T21:16:06.740Z,-2.01
2019-01-11T21:18:37.904Z,-1.91
2019-01-11T21:21:09.149Z,-1.96
2019-01-11T21:23:40.295Z,-1.93
2019-01-11T21:26:11.484Z,-2.01
2019-01-11T21:28:43.559Z,-2.00
2019-01-11T21:31:14.786Z,-2.00
2019-01-11T21:33:45.955Z,-1.91
2019-01-11T21:36:19.991Z,-1.82
2019-01-11T21:38:51.153Z,-1.86
2019-01-11T21:41:22.264Z,-1.97
2019-01-11T21:43:53.418Z,-2.07
2019-01-11T21:46:24.579Z,-1.96
2019-01-11T21:48:56.027Z,-1.96
2019-01-11T21:51:27.106Z,-1.92
2019-01-11T21:53:58.195Z,-1.86
2019-01-11T21:56:30.172Z,-1.98
2019-01-11T21:59:01.192Z,-1.99
2019-01-11T22:01:32.364Z,-1.96
2019-01-11T22:04:03.508Z,-1.94
2019-01-11T22:06:34.713Z,-1.95
2019-01-11T22:09:08.663Z,-2.00
2019-01-11T22:11:39.887Z,-1.84
2019-01-11T22:14:10.942Z,-1.77
2019-01-11T22:16:41.993Z,-1.88
2019-01-11T22:19:13.056Z,-1.92
2019-01-11T22:21:44.067Z,-1.87
2019-01-11T22:24:15.050Z,-1.78
2019-01-11T22:26:46.291Z,-1.73
2019-01-11T22:29:17.458Z,-1.80
2019-01-11T22:31:48.643Z,-1.80
2019-01-11T22:34:19.690Z,-1.77
2019-01-11T22:36:50.847Z,-1.64
2019-01-11T22:39:21.842Z,-1.66
2019-01-11T22:41:53.020Z,-1.69
2019-01-11T22:44:24.146Z,-1.71
2019-01-11T22:46:55.303Z,-1.57
2019-01-11T22:49:26.383Z,-1.61
2019-01-11T22:51:57.485Z,-1.54
2019-01-11T22:54:28.603Z,-1.48
2019-01-11T22:56:59.704Z,-1.51
2019-01-11T22:59:30.902Z,-1.51
2019-01-11T23:02:33.273Z,-1.53
2019-01-11T23:05:06.383Z,-1.43
2019-01-11T23:07:50.648Z,-1.44
2019-01-11T23:11:12.049Z,-1.49
2019-01-11T23:13:43.531Z,-1.49
2019-01-11T23:16:26.319Z,-1.42
2019-01-11T23:18:58.429Z,-1.42
2019-01-11T23:21:29.564Z,-1.13
2019-01-11T23:24:00.654Z,-1.29
2019-01-11T23:26:32.074Z,-1.39
2019-01-11T23:29:03.182Z,-1.26
2019-01-11T23:31:34.231Z,-1.36
2019-01-11T23:34:05.594Z,-1.37
2019-01-11T23:36:36.587Z,-1.36
2019-01-11T23:39:08.642Z,-1.42
2019-01-11T23:41:40.730Z,-1.31
2019-01-11T23:44:11.762Z,-1.33
2019-01-11T23:46:42.826Z,-1.40
2019-01-11T23:49:13.927Z,-1.36
2019-01-11T23:51:45.063Z,-1.42
2019-01-11T23:54:16.203Z,-1.46
2019-01-11T23:56:47.289Z,-1.34
2019-01-11T23:59:18.399Z,-1.26
